createdAt,value
2022-12-01T00:01:16.277Z,37.27
2022-12-01T00:03:45.775Z,32.30
2022-12-01T00:06:17.339Z,34.90
2022-12-01T00:09:03.438Z,36.17
2022-12-01T00:11:31.700Z,34.27
2022-12-01T00:13:59.618Z,32.30
2022-12-01T00:16:30.106Z,34.87
2022-12-01T00:18:58.354Z,32.00
2022-12-01T00:21:28.447Z,35.60
2022-12-01T00:23:58.852Z,37.20
2022-12-01T00:28:40.331Z,31.70
2022-12-01T00:31:08.993Z,36.70
2022-12-01T00:35:50.514Z,31.90
2022-12-01T00:38:18.366Z,33.33
2022-12-01T00:40:46.256Z,35.80
2022-12-01T00:43:20.036Z,32.73
2022-12-01T00:45:48.360Z,35.03
2022-12-01T00:48:16.555Z,33.97
2022-12-01T00:50:45.026Z,33.20
2022-12-01T00:53:17.185Z,33.27
2022-12-01T00:55:47.318Z,33.67
2022-12-01T00:58:15.074Z,34.93
2022-12-01T01:00:47.514Z,35.40
2022-12-01T01:03:15.433Z,37.33
2022-12-01T01:05:44.164Z,37.10
2022-12-01T01:08:14.805Z,34.50
2022-12-01T01:12:56.381Z,31.43
2022-12-01T01:15:27.271Z,33.63
2022-12-01T01:17:55.042Z,29.83
2022-12-01T01:20:23.233Z,33.73
2022-12-01T01:22:51.019Z,36.57
2022-12-01T01:25:19.180Z,33.07
2022-12-01T01:27:46.955Z,31.97
2022-12-01T01:30:16.917Z,33.50
2022-12-01T01:32:46.292Z,34.57
2022-12-01T01:35:14.125Z,32.53
2022-12-01T01:37:43.218Z,34.73
2022-12-01T01:40:12.038Z,32.40
2022-12-01T01:42:39.774Z,33.20
2022-12-01T01:45:20.621Z,38.50
2022-12-01T01:47:49.580Z,33.63
2022-12-01T01:50:21.469Z,33.10
2022-12-01T01:52:58.771Z,32.70
2022-12-01T01:55:27.127Z,30.93
2022-12-01T01:57:54.953Z,36.73
2022-12-01T02:00:25.016Z,36.07
2022-12-01T02:02:54.383Z,31.93
2022-12-01T02:05:25.086Z,36.77
2022-12-01T02:07:54.618Z,35.33
2022-12-01T02:10:25.289Z,35.33
2022-12-01T02:13:12.634Z,34.93
2022-12-01T02:15:49.795Z,32.93
2022-12-01T02:18:28.966Z,37.30
2022-12-01T02:21:36.249Z,33.80
2022-12-01T02:24:42.182Z,33.47
2022-12-01T02:27:20.985Z,34.47
2022-12-01T02:30:06.262Z,35.00
2022-12-01T02:32:49.993Z,38.57
2022-12-01T02:37:38.101Z,34.43
2022-12-01T02:40:17.050Z,35.47
2022-12-01T02:42:53.535Z,40.47
2022-12-01T02:45:38.365Z,43.93
2022-12-01T02:48:10.781Z,39.70
2022-12-01T02:50:43.748Z,40.30
2022-12-01T02:53:16.887Z,39.67
2022-12-01T02:55:51.100Z,35.30
2022-12-01T02:58:19.256Z,41.70
2022-12-01T03:03:20.899Z,39.07
2022-12-01T03:05:55.989Z,35.93
2022-12-01T03:08:33.568Z,39.73
2022-12-01T03:11:10.946Z,38.70
2022-12-01T03:13:45.769Z,43.47
2022-12-01T03:16:22.589Z,42.30
2022-12-01T03:18:56.554Z,39.70
2022-12-01T03:21:32.422Z,38.90
2022-12-01T03:24:07.320Z,38.40
2022-12-01T03:26:37.645Z,38.90
2022-12-01T03:29:09.345Z,39.20
2022-12-01T03:31:42.674Z,36.93
2022-12-01T03:34:15.849Z,37.80
2022-12-01T03:36:47.272Z,38.83
2022-12-01T03:39:20.206Z,37.03
2022-12-01T03:41:54.405Z,40.90
2022-12-01T03:44:29.079Z,35.00
2022-12-01T03:47:02.733Z,35.10
2022-12-01T03:49:35.286Z,36.90
2022-12-01T03:52:16.749Z,36.40
2022-12-01T03:54:53.147Z,33.30
2022-12-01T03:57:26.301Z,35.00
2022-12-01T03:59:56.374Z,34.30
2022-12-01T04:02:27.440Z,36.90
2022-12-01T04:04:58.923Z,38.83
2022-12-01T04:07:26.723Z,37.10
2022-12-01T04:09:54.546Z,33.37
2022-12-01T04:12:32.632Z,37.80
2022-12-01T04:15:03.146Z,38.33
2022-12-01T04:17:31.257Z,34.10
2022-12-01T04:20:00.447Z,39.13
2022-12-01T04:22:30.104Z,34.70
2022-12-01T04:25:02.604Z,32.97
2022-12-01T04:27:30.381Z,32.53
2022-12-01T04:32:31.864Z,37.10
2022-12-01T04:37:16.031Z,36.93
2022-12-01T04:39:44.217Z,35.33
2022-12-01T04:44:32.989Z,33.37
2022-12-01T04:47:02.594Z,30.50
2022-12-01T04:49:30.567Z,36.97
2022-12-01T04:52:00.320Z,35.87
2022-12-01T04:54:31.166Z,35.80
2022-12-01T04:56:59.355Z,35.03
2022-12-01T04:59:28.494Z,35.00
2022-12-01T05:02:00.463Z,35.53
2022-12-01T05:06:49.562Z,35.70
2022-12-01T05:09:18.076Z,37.97
2022-12-01T05:11:46.030Z,35.37
2022-12-01T05:14:13.847Z,36.10
2022-12-01T05:16:41.738Z,40.17
2022-12-01T05:19:27.257Z,35.90
2022-12-01T05:21:56.358Z,35.43
2022-12-01T05:24:24.508Z,36.77
2022-12-01T05:26:52.382Z,38.17
2022-12-01T05:29:20.589Z,35.93
2022-12-01T05:31:50.872Z,37.17
2022-12-01T05:34:18.889Z,33.60
2022-12-01T05:36:49.539Z,36.13
2022-12-01T05:39:18.725Z,36.50
2022-12-01T05:41:46.496Z,34.90
2022-12-01T05:44:14.330Z,35.83
2022-12-01T05:46:42.134Z,37.50
2022-12-01T05:49:09.849Z,41.87
2022-12-01T05:51:37.781Z,39.73
2022-12-01T05:54:08.186Z,35.40
2022-12-01T05:56:38.775Z,37.07
2022-12-01T06:01:21.681Z,40.87
2022-12-01T06:03:49.528Z,38.53
2022-12-01T06:06:23.579Z,37.00
2022-12-01T06:08:52.392Z,38.97
2022-12-01T06:11:20.220Z,38.80
2022-12-01T06:13:48.150Z,38.13
2022-12-01T06:16:15.989Z,41.83
2022-12-01T06:18:45.151Z,39.80
2022-12-01T06:21:16.414Z,33.87
2022-12-01T06:23:47.391Z,37.63
2022-12-01T06:26:18.265Z,32.77
2022-12-01T06:28:46.037Z,37.47
2022-12-01T06:31:14.386Z,36.20
2022-12-01T06:38:07.818Z,32.90
2022-12-01T06:45:24.069Z,35.10
2022-12-01T06:47:54.982Z,35.47
2022-12-01T06:50:25.283Z,34.80
2022-12-01T06:52:53.808Z,36.60
2022-12-01T06:55:24.223Z,39.57
2022-12-01T06:57:54.052Z,36.00
2022-12-01T07:00:26.080Z,35.33
2022-12-01T07:02:54.075Z,36.80
2022-12-01T07:05:21.882Z,35.17
2022-12-01T07:07:56.386Z,37.30
2022-12-01T07:10:27.733Z,44.93
2022-12-01T07:12:59.464Z,37.77
2022-12-01T07:15:30.986Z,33.03
2022-12-01T07:18:05.205Z,36.00
2022-12-01T07:20:32.943Z,34.83
2022-12-01T07:23:00.844Z,34.50
2022-12-01T07:25:28.590Z,39.20
2022-12-01T07:27:56.747Z,36.97
2022-12-01T07:30:28.371Z,35.47
2022-12-01T07:32:57.901Z,35.77
2022-12-01T07:35:25.710Z,37.43
2022-12-01T07:37:56.653Z,37.87
2022-12-01T07:40:24.740Z,41.00
2022-12-01T07:42:52.566Z,39.50
2022-12-01T07:45:20.353Z,37.90
2022-12-01T07:47:50.931Z,39.77
2022-12-01T07:50:20.096Z,42.03
2022-12-01T07:52:50.634Z,47.00
2022-12-01T07:55:18.610Z,37.13
2022-12-01T07:57:46.429Z,44.73
2022-12-01T08:00:17.532Z,41.83
2022-12-01T08:02:45.379Z,41.43
2022-12-01T08:05:13.321Z,45.07
2022-12-01T08:07:42.483Z,44.90
2022-12-01T08:10:11.035Z,45.67
2022-12-01T08:12:53.653Z,44.50
2022-12-01T08:15:21.732Z,45.07
2022-12-01T08:17:52.011Z,49.33
2022-12-01T08:22:33.436Z,42.60
2022-12-01T08:25:04.340Z,42.20
2022-12-01T08:29:45.729Z,46.47
2022-12-01T08:32:13.891Z,45.97
2022-12-01T08:39:26.769Z,43.30
2022-12-01T08:41:54.553Z,47.07
2022-12-01T08:44:22.475Z,47.00
2022-12-01T08:46:50.302Z,46.90
2022-12-01T08:49:18.288Z,50.00
2022-12-01T08:51:46.185Z,54.37
2022-12-01T08:54:14.117Z,47.53
2022-12-01T08:56:44.678Z,51.83
2022-12-01T08:59:15.464Z,57.10
2022-12-01T09:02:02.496Z,54.87
2022-12-01T09:04:34.495Z,53.47
2022-12-01T09:07:02.657Z,61.67
2022-12-01T09:09:32.352Z,58.23
2022-12-01T09:12:01.858Z,55.17
2022-12-01T09:14:29.698Z,56.83
2022-12-01T09:16:57.516Z,57.97
2022-12-01T09:19:25.499Z,54.93
2022-12-01T09:21:53.750Z,49.13
2022-12-01T09:24:21.552Z,60.33
2022-12-01T09:26:49.569Z,62.90
2022-12-01T09:29:21.478Z,54.57
2022-12-01T09:31:49.662Z,50.47
2022-12-01T09:34:21.538Z,50.20
2022-12-01T09:39:03.012Z,49.30
2022-12-01T09:41:37.586Z,54.80
2022-12-01T09:44:14.255Z,60.27
2022-12-01T09:46:45.321Z,53.63
2022-12-01T09:49:28.701Z,49.47
2022-12-01T09:51:56.915Z,49.23
2022-12-01T09:54:26.082Z,53.63
2022-12-01T09:56:55.704Z,53.77
2022-12-01T09:59:28.454Z,51.37
2022-12-01T10:02:01.895Z,53.00
2022-12-01T10:04:39.771Z,62.33
2022-12-01T10:07:21.794Z,58.80
2022-12-01T10:09:55.895Z,56.93
2022-12-01T10:12:30.416Z,52.33
2022-12-01T10:15:11.657Z,58.80
2022-12-01T10:17:47.700Z,53.87
2022-12-01T10:20:21.777Z,54.80
2022-12-01T10:23:04.979Z,55.17
2022-12-01T10:25:45.079Z,52.57
2022-12-01T10:28:38.694Z,51.57
2022-12-01T10:31:16.442Z,54.57
2022-12-01T10:33:58.129Z,68.17
2022-12-01T10:36:29.616Z,52.67
2022-12-01T10:39:01.752Z,56.30
2022-12-01T10:41:34.595Z,60.90
2022-12-01T10:44:15.192Z,53.00
2022-12-01T10:46:47.755Z,56.03
2022-12-01T10:49:18.333Z,55.10
2022-12-01T10:51:54.864Z,52.73
2022-12-01T10:54:36.014Z,55.40
2022-12-01T10:57:07.525Z,53.37
2022-12-01T10:59:38.913Z,54.50
2022-12-01T11:02:16.812Z,51.57
2022-12-01T11:04:53.467Z,54.03
2022-12-01T11:07:24.711Z,53.70
2022-12-01T11:10:16.344Z,52.70
2022-12-01T11:12:54.101Z,54.10
2022-12-01T11:17:43.097Z,52.00
2022-12-01T11:20:30.129Z,56.50
2022-12-01T11:25:21.091Z,49.60
2022-12-01T11:27:57.646Z,47.90
2022-12-01T11:30:30.083Z,52.87
2022-12-01T11:33:01.909Z,50.50
2022-12-01T11:35:38.097Z,57.10
2022-12-01T11:40:58.773Z,47.97
2022-12-01T11:43:29.431Z,54.50
2022-12-01T11:46:00.756Z,51.20
2022-12-01T11:48:31.062Z,54.53
2022-12-01T11:54:07.473Z,48.77
2022-12-01T11:56:35.336Z,50.07
2022-12-01T11:59:05.851Z,50.43
2022-12-01T12:01:48.333Z,45.53
2022-12-01T12:04:30.388Z,49.50
2022-12-01T12:07:10.545Z,43.47
2022-12-01T12:10:14.026Z,48.83
2022-12-01T12:12:56.593Z,40.73
2022-12-01T12:15:37.143Z,37.67
2022-12-01T12:18:28.158Z,40.87
2022-12-01T12:21:07.394Z,41.17
2022-12-01T12:23:53.350Z,43.40
2022-12-01T12:46:08.594Z,48.10
2022-12-01T12:51:53.218Z,41.57
2022-12-01T12:54:27.728Z,39.70
2022-12-01T12:59:18.549Z,43.63
2022-12-01T13:04:07.846Z,39.33
2022-12-01T13:12:02.149Z,43.33
2022-12-01T13:14:37.175Z,39.93
2022-12-01T13:17:19.210Z,43.03
2022-12-01T13:22:35.389Z,38.67
2022-12-01T13:25:15.791Z,40.07
2022-12-01T13:27:45.083Z,35.40
2022-12-01T13:30:21.168Z,38.47
2022-12-01T13:32:59.887Z,35.50
2022-12-01T13:35:31.977Z,36.70
2022-12-01T13:41:20.956Z,37.10
2022-12-01T13:43:57.966Z,40.13
2022-12-01T13:51:13.214Z,40.83
2022-12-01T13:56:45.636Z,39.70
2022-12-01T14:04:34.393Z,39.03
2022-12-01T14:07:36.589Z,35.37
2022-12-01T14:10:26.958Z,35.23
2022-12-01T14:12:58.310Z,35.50
2022-12-01T14:15:36.135Z,39.90
2022-12-01T14:18:07.929Z,36.27
2022-12-01T14:20:46.297Z,35.50
2022-12-01T14:23:24.130Z,39.67
2022-12-01T14:26:04.861Z,36.67
2022-12-01T14:29:18.585Z,34.13
2022-12-01T14:32:27.662Z,35.13
2022-12-01T14:35:14.134Z,36.37
2022-12-01T14:37:48.425Z,38.53
2022-12-01T14:40:29.056Z,34.07
2022-12-01T14:43:15.925Z,33.97
2022-12-01T14:45:51.939Z,35.07
2022-12-01T14:48:25.100Z,33.97
2022-12-01T14:51:10.046Z,36.23
2022-12-01T14:53:44.382Z,42.50
2022-12-01T14:56:14.949Z,39.73
2022-12-01T14:58:53.029Z,35.20
2022-12-01T15:01:30.677Z,42.13
2022-12-01T15:04:03.843Z,38.03
2022-12-01T15:06:32.958Z,35.30
2022-12-01T15:12:04.722Z,33.80
2022-12-01T15:14:35.207Z,39.53
2022-12-01T15:17:05.098Z,33.43
2022-12-01T15:19:35.694Z,31.30
2022-12-01T15:22:07.612Z,34.03
2022-12-01T15:24:36.907Z,35.17
2022-12-01T15:27:23.663Z,31.57
2022-12-01T15:29:54.253Z,35.73
2022-12-01T15:32:24.853Z,31.93
2022-12-01T15:34:57.250Z,34.70
2022-12-01T15:37:27.901Z,32.50
2022-12-01T15:45:20.296Z,34.43
2022-12-01T15:47:49.811Z,31.27
2022-12-01T15:50:33.515Z,40.57
2022-12-01T15:53:07.971Z,45.30
2022-12-01T15:55:37.937Z,35.80
2022-12-01T15:58:09.065Z,34.40
2022-12-01T16:00:38.706Z,37.43
2022-12-01T16:03:06.546Z,34.00
2022-12-01T16:05:37.252Z,37.20
2022-12-01T16:08:17.136Z,33.87
2022-12-01T16:18:29.379Z,34.53
2022-12-01T16:21:03.791Z,32.97
2022-12-01T16:25:51.947Z,34.57
2022-12-01T16:28:23.021Z,34.23
2022-12-01T16:38:16.367Z,33.93
2022-12-01T16:40:45.269Z,30.33
2022-12-01T16:43:18.770Z,29.03
2022-12-01T16:45:52.688Z,31.13
2022-12-01T16:48:21.094Z,27.37
2022-12-01T16:50:49.832Z,30.40
2022-12-01T16:53:19.300Z,30.83
2022-12-01T16:55:55.461Z,30.37
2022-12-01T16:58:23.641Z,30.97
2022-12-01T17:00:53.338Z,35.80
2022-12-01T17:03:22.573Z,29.13
2022-12-01T17:05:51.104Z,34.50
2022-12-01T17:08:20.667Z,29.93
2022-12-01T17:10:50.200Z,32.03
2022-12-01T17:13:19.002Z,33.10
2022-12-01T17:15:48.863Z,32.77
2022-12-01T17:18:18.681Z,32.77
2022-12-01T17:20:46.721Z,35.03
2022-12-01T17:23:14.450Z,39.70
2022-12-01T17:25:46.430Z,35.60
2022-12-01T17:28:14.771Z,35.47
2022-12-01T17:30:45.413Z,40.67
2022-12-01T17:33:13.759Z,37.77
2022-12-01T17:35:41.640Z,34.93
2022-12-01T17:38:09.744Z,39.27
2022-12-01T17:40:37.593Z,38.00
2022-12-01T17:43:08.330Z,33.80
2022-12-01T17:45:41.929Z,35.17
2022-12-01T17:48:09.800Z,33.87
2022-12-01T17:50:39.009Z,35.23
2022-12-01T17:53:06.962Z,31.50
2022-12-01T17:55:34.925Z,33.63
2022-12-01T17:58:03.630Z,30.00
2022-12-01T18:00:32.730Z,32.13
2022-12-01T18:03:03.258Z,30.43
2022-12-01T18:05:31.491Z,28.87
2022-12-01T18:07:59.392Z,26.20
2022-12-01T18:10:27.143Z,26.13
2022-12-01T18:12:54.898Z,27.63
2022-12-01T18:15:25.862Z,25.87
2022-12-01T18:17:56.693Z,24.37
2022-12-01T18:20:27.345Z,26.10
2022-12-01T18:22:55.231Z,27.67
2022-12-01T18:25:23.422Z,29.13
2022-12-01T18:27:58.062Z,32.13
2022-12-01T18:30:28.802Z,29.53
2022-12-01T18:32:59.477Z,32.23
2022-12-01T18:37:40.868Z,29.47
2022-12-01T18:42:41.762Z,32.50
2022-12-01T18:47:23.129Z,29.60
2022-12-01T18:49:53.515Z,30.67
2022-12-01T18:54:35.713Z,26.13
2022-12-01T18:57:03.528Z,31.33
2022-12-01T19:01:46.458Z,27.30
2022-12-01T19:04:16.489Z,31.23
2022-12-01T19:06:45.687Z,28.03
2022-12-01T19:09:15.255Z,30.67
2022-12-01T19:11:43.768Z,31.53
2022-12-01T19:16:25.933Z,28.30
2022-12-01T19:18:54.053Z,33.87
2022-12-01T19:21:22.306Z,27.60
2022-12-01T19:23:50.339Z,29.83
2022-12-01T19:26:20.166Z,26.63
2022-12-01T19:28:51.167Z,32.07
2022-12-01T19:31:22.548Z,32.43
2022-12-01T19:33:52.854Z,29.20
2022-12-01T19:36:22.578Z,33.77
2022-12-01T19:38:50.696Z,26.17
2022-12-01T19:41:20.828Z,27.33
2022-12-01T19:43:52.044Z,27.10
2022-12-01T19:46:22.338Z,27.53
2022-12-01T19:48:56.911Z,28.17
2022-12-01T19:51:28.051Z,25.90
2022-12-01T19:53:58.723Z,25.57
2022-12-01T19:56:26.578Z,23.70
2022-12-01T19:58:56.939Z,26.87
2022-12-01T20:01:25.862Z,29.00
2022-12-01T20:03:58.263Z,25.33
2022-12-01T20:06:27.738Z,27.70
2022-12-01T20:08:58.881Z,28.47
2022-12-01T20:11:29.473Z,31.33
2022-12-01T20:14:00.574Z,30.87
2022-12-01T20:16:30.357Z,27.03
2022-12-01T20:19:01.710Z,30.73
2022-12-01T20:21:34.965Z,31.37
2022-12-01T20:26:17.978Z,25.33
2022-12-01T20:28:47.141Z,28.53
2022-12-01T20:31:18.635Z,28.40
2022-12-01T20:33:46.824Z,31.97
2022-12-01T20:38:31.109Z,29.97
2022-12-01T20:41:01.159Z,35.27
2022-12-01T20:43:34.028Z,36.23
2022-12-01T20:46:02.758Z,33.83
2022-12-01T20:50:44.327Z,30.87
2022-12-01T20:53:12.335Z,33.50
2022-12-01T20:55:40.394Z,37.53
2022-12-01T20:58:09.516Z,34.10
2022-12-01T21:00:38.249Z,37.30
2022-12-01T21:03:06.412Z,38.53
2022-12-01T21:05:34.242Z,35.93
2022-12-01T21:08:03.580Z,37.30
2022-12-01T21:10:31.407Z,38.30
2022-12-01T21:13:19.657Z,37.70
2022-12-01T21:15:58.596Z,35.00
2022-12-01T21:18:36.372Z,36.63
2022-12-01T21:21:08.124Z,34.33
2022-12-01T21:23:46.475Z,34.67
2022-12-01T21:26:16.123Z,33.73
2022-12-01T21:28:44.835Z,39.47
2022-12-01T21:31:15.567Z,51.37
2022-12-01T21:33:43.652Z,51.60
2022-12-01T21:38:24.086Z,41.93
2022-12-01T21:40:55.377Z,45.90
2022-12-01T21:43:25.327Z,40.87
2022-12-01T21:45:56.333Z,38.77
2022-12-01T21:48:24.669Z,34.17
2022-12-01T21:50:59.416Z,36.27
2022-12-01T21:53:38.443Z,36.93
2022-12-01T21:56:06.682Z,41.40
2022-12-01T21:58:39.881Z,41.77
2022-12-01T22:01:17.640Z,38.53
2022-12-01T22:03:49.623Z,39.70
2022-12-01T22:06:31.101Z,40.53
2022-12-01T22:09:03.345Z,39.80
2022-12-01T22:11:33.009Z,38.60
2022-12-01T22:14:17.154Z,41.27
2022-12-01T22:16:47.863Z,41.73
2022-12-01T22:19:28.697Z,38.93
2022-12-01T22:22:18.370Z,41.63
2022-12-01T22:24:49.353Z,40.53
2022-12-01T22:27:28.726Z,45.67
2022-12-01T22:30:02.428Z,39.43
2022-12-01T22:34:49.150Z,40.23
2022-12-01T22:37:23.283Z,40.83
2022-12-01T22:39:58.057Z,38.63
2022-12-01T22:42:32.485Z,44.10
2022-12-01T22:47:25.130Z,44.93
2022-12-01T22:52:16.995Z,35.23
2022-12-01T22:54:48.860Z,44.17
2022-12-01T22:57:31.069Z,43.97
2022-12-01T22:59:59.093Z,44.53
2022-12-01T23:02:33.847Z,42.50
2022-12-01T23:05:03.058Z,45.67
2022-12-01T23:07:36.926Z,44.73
2022-12-01T23:10:11.928Z,42.50
2022-12-01T23:12:40.420Z,43.70
2022-12-01T23:15:24.513Z,46.07
2022-12-01T23:17:52.803Z,43.37
2022-12-01T23:20:32.277Z,45.77
2022-12-01T23:25:16.926Z,48.47
2022-12-01T23:27:46.738Z,47.47
2022-12-01T23:30:15.918Z,46.03
2022-12-01T23:32:46.368Z,49.63
2022-12-01T23:35:17.319Z,50.17
2022-12-01T23:37:47.628Z,52.93
2022-12-01T23:40:21.831Z,59.90
2022-12-01T23:42:50.165Z,54.33
2022-12-01T23:45:22.465Z,54.40
2022-12-01T23:47:53.469Z,48.70
2022-12-01T23:50:23.018Z,59.87
2022-12-01T23:52:53.283Z,60.10
2022-12-01T23:57:34.905Z,60.03
